Terminal Aerodrome Forecast
Issued by NWS Springfield, MO

Home | Current Version | Previous Version | Text Only | Print | Product List | Glossary On
Versions: 1 2 3 4 5 6 7 8 9 10 11 12 13 14
997
FTUS43 KSGF 131730
TAFSGF
TAF
KSGF 131730Z 1318/1418 11009KT P6SM BKN150
     FM140300 14016G22KT P6SM OVC070
     FM140800 15017G24KT P6SM BKN025 OVC050 WS020/19035KT
      TEMPO 1408/1412 5SM -FZDZPL BR BKN015 OVC025
     FM141200 16011KT 4SM -FZDZ OVC015 WS020/22035KT
      TEMPO 1415/1418 P6SM NSW=

USA.gov is the U.S. government's official web portal to all federal, state and local government web resources and services.